Barry, Minnesota
Current Conditions -  °F | °C
As of 12:16 AM on Saturday 29 Nov 2014 (Local Time) from KETH Reporting Station
Haze Haze  
Wind Chill:   Ceiling: 600
Heat Index: 19°   Visibility: 5mi
Dew Point: 18°   Wind: 17mph
Humidity: 93%   Direction: 140°SE
Pressure: 29.57"   Gusts: NA
Location:  45.56°N, 96.56°W
Report Text: KETH 290616Z AUTO 14015KT 5SM BR OVC006 M07/M08 A2957 RMK AO2
Loading
Personal Weather Stations






























Interactive Weather Map New forecast layout! Learn more

10-Day Weather Forecast

Advertisements
Track Severe Weather on mobile